createdAt,value
2022-10-25T00:04:25.067Z,12.4
2022-10-25T00:09:07.269Z,12
2022-10-25T00:13:49.483Z,12.3
2022-10-25T00:18:31.808Z,12.2
2022-10-25T00:23:13.109Z,11.8
2022-10-25T00:27:55.430Z,11.9
2022-10-25T00:32:37.659Z,12
2022-10-25T00:37:19.951Z,11.9
2022-10-25T00:42:02.264Z,11.7
2022-10-25T00:46:44.502Z,11.8
2022-10-25T00:51:26.795Z,11.6
2022-10-25T00:56:08.108Z,11.5
2022-10-25T01:00:49.429Z,11.4
2022-10-25T01:05:30.757Z,11.3
2022-10-25T01:10:12.055Z,11.3
2022-10-25T01:14:53.380Z,11.4
2022-10-25T01:19:34.590Z,11.1
2022-10-25T01:24:15.908Z,10.8
2022-10-25T01:28:57.196Z,10.6
2022-10-25T01:33:39.511Z,10.6
2022-10-25T01:38:21.731Z,10.7
2022-10-25T01:43:04.039Z,10.7
2022-10-25T01:47:46.354Z,10.8
2022-10-25T01:52:28.567Z,11
2022-10-25T01:57:10.895Z,11
2022-10-25T02:01:53.191Z,11.1
2022-10-25T02:06:35.406Z,11
2022-10-25T02:11:17.813Z,10.6
2022-10-25T02:16:00.042Z,10.2
2022-10-25T02:20:42.250Z,9.9
2022-10-25T02:25:24.563Z,9.8
2022-10-25T02:30:05.876Z,9.9
2022-10-25T02:34:48.193Z,9.6
2022-10-25T02:39:30.405Z,9.4
2022-10-25T02:44:12.783Z,9.4
2022-10-25T02:48:55.036Z,9.6
2022-10-25T02:53:37.244Z,9.6
2022-10-25T02:58:19.603Z,9.5
2022-10-25T03:03:00.873Z,9.5
2022-10-25T03:07:42.180Z,9.6
2022-10-25T03:12:23.495Z,9.5
2022-10-25T03:17:04.807Z,9.5
2022-10-25T03:21:47.024Z,9.3
2022-10-25T03:26:29.336Z,9.4
2022-10-25T03:31:11.653Z,9.7
2022-10-25T03:35:53.868Z,9.7
2022-10-25T03:40:36.181Z,9.7
2022-10-25T03:45:18.493Z,9.9
2022-10-25T03:50:00.709Z,9.9
2022-10-25T03:54:43.020Z,9.9
2022-10-25T03:59:25.282Z,10.1
2022-10-25T04:04:07.578Z,10.1
2022-10-25T04:08:49.862Z,9.8
2022-10-25T04:13:32.079Z,9.7
2022-10-25T04:18:13.389Z,9.5
2022-10-25T04:22:55.792Z,9.4
2022-10-25T04:27:38.040Z,9.4
2022-10-25T04:32:20.245Z,9.3
2022-10-25T04:37:02.573Z,9.5
2022-10-25T04:41:44.862Z,9.1
2022-10-25T04:46:27.070Z,9.1
2022-10-25T04:51:08.387Z,8.9
2022-10-25T04:55:49.697Z,9
2022-10-25T05:00:31.074Z,9.2
2022-10-25T05:05:12.329Z,9.1
2022-10-25T05:09:54.636Z,9
2022-10-25T05:14:36.862Z,9
2022-10-25T05:19:19.159Z,8.9
2022-10-25T05:24:01.510Z,9.2
2022-10-25T05:28:43.689Z,9.2
2022-10-25T05:33:26.002Z,9.5
2022-10-25T05:38:08.319Z,9.2
2022-10-25T05:42:50.541Z,9.2
2022-10-25T05:47:32.844Z,9.3
2022-10-25T05:52:15.156Z,9.5
2022-10-25T05:56:57.401Z,9.6
2022-10-25T06:01:39.686Z,9.7
2022-10-25T06:06:20.993Z,9.7
2022-10-25T06:11:03.210Z,9.8
2022-10-25T06:15:45.548Z,9.9
2022-10-25T06:20:27.837Z,9.9
2022-10-25T06:25:10.048Z,9.9
2022-10-25T06:29:52.364Z,10.2
2022-10-25T06:34:34.673Z,10.5
2022-10-25T06:39:15.999Z,10.8
2022-10-25T06:43:57.300Z,10.9
2022-10-25T06:48:38.617Z,11.5
2022-10-25T06:53:19.825Z,11.6
2022-10-25T06:58:02.148Z,11.3
2022-10-25T07:02:44.455Z,11.5
2022-10-25T07:07:26.673Z,11.4
2022-10-25T07:12:08.981Z,11.3
2022-10-25T07:16:51.319Z,11.5
2022-10-25T07:21:33.627Z,11.8
2022-10-25T07:26:15.863Z,11.9
2022-10-25T07:30:58.145Z,12.6
2022-10-25T07:35:40.354Z,12.6
2022-10-25T07:40:22.668Z,12.8
2022-10-25T07:45:04.989Z,13.2
2022-10-25T07:49:47.193Z,13.5
2022-10-25T07:54:28.522Z,13.3
2022-10-25T07:59:10.835Z,13.7
2022-10-25T08:03:53.051Z,13.9
2022-10-25T08:08:35.398Z,14.1
2022-10-25T08:13:17.656Z,14.3
2022-10-25T08:18:00.017Z,14.8
2022-10-25T08:22:42.335Z,15.8
2022-10-25T08:27:23.605Z,15.9
2022-10-25T08:32:04.904Z,15.7
2022-10-25T08:36:46.137Z,15.3
2022-10-25T08:41:27.455Z,15.8
2022-10-25T08:46:09.702Z,16.5
2022-10-25T08:50:51.918Z,17
2022-10-25T08:55:34.297Z,16.4
2022-10-25T09:00:16.612Z,16.8
2022-10-25T09:04:58.803Z,16.5
2022-10-25T09:09:41.117Z,18.9
2022-10-25T09:14:23.393Z,17.7
2022-10-25T09:19:05.673Z,16.6
2022-10-25T09:23:47.931Z,16.9
2022-10-25T09:28:30.227Z,16.6
2022-10-25T09:33:12.474Z,18.7
2022-10-25T09:37:54.896Z,17.7
2022-10-25T09:42:36.159Z,17.2
2022-10-25T09:47:18.288Z,17.7
2022-10-25T09:52:00.651Z,17.4
2022-10-25T09:56:42.950Z,16.9
2022-10-25T10:01:25.239Z,16.7
2022-10-25T10:06:07.481Z,17.2
2022-10-25T10:10:49.787Z,16.3
2022-10-25T10:15:31.202Z,18.2
2022-10-25T10:20:12.410Z,18.9
2022-10-25T10:24:54.599Z,19.5
2022-10-25T10:29:36.921Z,18.9
2022-10-25T10:34:19.122Z,18.1
2022-10-25T10:39:01.476Z,18
2022-10-25T10:43:43.829Z,17.8
2022-10-25T10:48:25.991Z,17.8
2022-10-25T10:53:08.280Z,17.6
2022-10-25T10:57:50.586Z,17.4
2022-10-25T11:02:32.801Z,18.6
2022-10-25T11:07:15.272Z,21.9
2022-10-25T11:11:57.435Z,21.8
2022-10-25T11:16:39.723Z,23.7
2022-10-25T11:21:20.961Z,21.4
2022-10-25T11:26:03.322Z,22.2
2022-10-25T11:30:45.494Z,23.3
2022-10-25T11:35:27.803Z,21
2022-10-25T11:40:10.112Z,18.9
2022-10-25T11:44:52.431Z,20.8
2022-10-25T11:49:34.678Z,19.1
2022-10-25T11:54:15.960Z,21.2
2022-10-25T11:58:57.294Z,19.3
2022-10-25T12:03:39.545Z,18.3
2022-10-25T12:08:21.825Z,18
2022-10-25T12:13:04.250Z,17.9
2022-10-25T12:17:46.345Z,17.9
2022-10-25T12:22:28.682Z,18.3
2022-10-25T12:27:10.948Z,18
2022-10-25T12:31:53.224Z,18
2022-10-25T12:36:35.476Z,17.6
2022-10-25T12:41:17.691Z,18.1
2022-10-25T12:45:59.999Z,18
2022-10-25T12:50:42.319Z,17.7
2022-10-25T12:55:24.629Z,17.3
2022-10-25T13:00:05.852Z,17.5
2022-10-25T13:04:48.176Z,17.5
2022-10-25T13:09:30.471Z,17.7
2022-10-25T13:14:12.684Z,18.1
2022-10-25T13:18:55.098Z,18.1
2022-10-25T13:23:37.437Z,18.4
2022-10-25T13:28:19.528Z,19.2
2022-10-25T13:33:00.865Z,24.2
2022-10-25T13:37:42.230Z,23
2022-10-25T13:42:23.485Z,24.5
2022-10-25T13:47:04.828Z,22.9
2022-10-25T13:56:28.376Z,23.5
2022-10-25T14:01:09.636Z,23.1
2022-10-25T14:05:51.012Z,21.4
2022-10-25T14:10:32.239Z,23.7
2022-10-25T14:15:13.601Z,23.7
2022-10-25T14:19:55.894Z,21.8
2022-10-25T14:24:38.113Z,22.7
2022-10-25T14:29:20.482Z,22.7
2022-10-25T14:34:02.710Z,21.6
2022-10-25T14:38:44.931Z,20.6
2022-10-25T14:43:27.246Z,20.2
2022-10-25T14:48:09.550Z,19.5
2022-10-25T14:52:51.821Z,19.5
2022-10-25T14:57:34.107Z,19.7
2022-10-25T15:02:16.450Z,19.7
2022-10-25T15:06:58.606Z,19.5
2022-10-25T15:11:40.920Z,19.3
2022-10-25T15:16:22.377Z,18.6
2022-10-25T15:21:04.559Z,18.3
2022-10-25T15:25:46.890Z,18
2022-10-25T15:30:29.174Z,17.6
2022-10-25T15:35:11.352Z,17.2
2022-10-25T15:39:53.738Z,17
2022-10-25T15:44:35.934Z,16.6
2022-10-25T15:49:17.343Z,16.5
2022-10-25T15:53:58.537Z,16.1
2022-10-25T15:58:40.858Z,15.7
2022-10-25T16:03:23.124Z,15.5
2022-10-25T16:08:04.425Z,15.2
2022-10-25T16:12:46.609Z,15.1
2022-10-25T16:17:28.927Z,14.7
2022-10-25T16:22:11.215Z,14.6
2022-10-25T16:26:53.469Z,14.2
2022-10-25T16:31:35.856Z,14.1
2022-10-25T16:36:18.109Z,14
2022-10-25T16:41:00.304Z,13.9
2022-10-25T16:45:42.589Z,13.5
2022-10-25T16:50:24.938Z,13.4
2022-10-25T16:55:07.171Z,13.4
2022-10-25T16:59:49.440Z,13.1
2022-10-25T17:04:31.838Z,12.9
2022-10-25T17:13:55.287Z,12.7
2022-10-25T17:18:37.609Z,12.6
2022-10-25T17:23:19.791Z,12.4
2022-10-25T17:28:02.093Z,12.1
2022-10-25T17:32:43.468Z,12.1
2022-10-25T17:37:24.722Z,12.1
2022-10-25T17:42:06.035Z,11.9
2022-10-25T17:46:47.382Z,11.8
2022-10-25T17:51:29.553Z,11.5
2022-10-25T17:56:11.864Z,11.4
2022-10-25T18:00:54.190Z,11.1
2022-10-25T18:05:36.390Z,11
2022-10-25T18:10:18.704Z,11.1
2022-10-25T18:15:01.023Z,10.9
2022-10-25T18:19:43.238Z,10.8
2022-10-25T18:24:25.573Z,10.8
2022-10-25T18:29:07.888Z,10.6
2022-10-25T18:33:50.145Z,10.5
2022-10-25T18:38:32.383Z,10.4
2022-10-25T18:43:14.725Z,10.3
2022-10-25T18:47:56.023Z,10.4
2022-10-25T18:52:38.242Z,10.2
2022-10-25T18:57:20.568Z,10.3
2022-10-25T19:02:02.844Z,10.4
2022-10-25T19:06:45.094Z,10.1
2022-10-25T19:11:27.430Z,10.1
2022-10-25T19:16:09.702Z,10.1
2022-10-25T19:20:50.998Z,9.9
2022-10-25T19:25:32.217Z,9.9
2022-10-25T19:30:13.520Z,9.8
2022-10-25T19:34:54.850Z,9.6
2022-10-25T19:39:37.145Z,9.6
2022-10-25T19:44:19.458Z,9.6
2022-10-25T19:49:01.669Z,9.7
2022-10-25T19:53:43.982Z,9.4
2022-10-25T19:58:26.282Z,9.4
2022-10-25T20:03:08.495Z,9.4
2022-10-25T20:07:50.819Z,9.1
2022-10-25T20:12:33.152Z,9.3
2022-10-25T20:17:15.332Z,9.4
2022-10-25T20:26:39.956Z,9.2
2022-10-25T20:31:22.202Z,9.1
2022-10-25T20:36:03.485Z,9.1
2022-10-25T20:40:45.806Z,8.9
2022-10-25T20:45:28.109Z,9
2022-10-25T20:50:10.359Z,8.7
2022-10-25T20:54:52.661Z,8.6
2022-10-25T20:59:34.948Z,8.6
2022-10-25T21:04:17.158Z,8.6
2022-10-25T21:08:59.524Z,8.6
2022-10-25T21:13:40.803Z,8.8
2022-10-25T21:18:22.104Z,8.7
2022-10-25T21:23:04.412Z,8.6
2022-10-25T21:27:46.621Z,8.5
2022-10-25T21:32:28.949Z,8.7
2022-10-25T21:37:11.273Z,8.6
2022-10-25T21:41:53.502Z,8.6
2022-10-25T21:46:35.776Z,8.6
2022-10-25T21:51:18.098Z,8.4
2022-10-25T21:56:00.299Z,8.5
2022-10-25T22:00:42.685Z,8.4
2022-10-25T22:05:24.922Z,8.5
2022-10-25T22:10:07.144Z,8.4
2022-10-25T22:14:49.449Z,8.3
2022-10-25T22:19:30.802Z,8.4
2022-10-25T22:24:12.976Z,8.3
2022-10-25T22:28:55.292Z,8.3
2022-10-25T22:33:37.602Z,8.3
2022-10-25T22:38:19.816Z,8.3
2022-10-25T22:43:02.152Z,8.4
2022-10-25T22:47:44.440Z,8.4
2022-10-25T22:52:25.752Z,8.3
2022-10-25T22:57:07.062Z,8.3
2022-10-25T23:01:49.319Z,8.2
2022-10-25T23:06:31.628Z,8.3
2022-10-25T23:11:13.905Z,8.4
2022-10-25T23:15:56.119Z,8.3
2022-10-25T23:20:38.438Z,8.2
2022-10-25T23:25:20.747Z,8.4
2022-10-25T23:30:02.955Z,8.2
2022-10-25T23:34:45.356Z,8.1
2022-10-25T23:39:27.583Z,7.9
2022-10-25T23:44:09.801Z,8
2022-10-25T23:48:52.106Z,8.1
2022-10-25T23:53:34.416Z,8.2
2022-10-25T23:58:15.820Z,8.1
